Time;durP1;ratioP1;P1;durP2;ratioP2;P2;SDS_P1;SDS_P2;PMS_P1;PMS_P2;Temp;Humidity;BMP_temperature;BMP_pressure;BME280_temperature;BME280_humidity;BME280_pressure;Samples;Min_cycle;Max_cycle;Signal;HPM_P1;HPM_P2
2023/12/29 00:01:16;;;;;;;10.13;1.83;;;11.20;31.80;;;;;;5056809;28;20017;-64
2023/12/29 00:03:42;;;;;;;6.93;1.08;;;11.20;35.50;;;;;;5056784;28;20037;-63
2023/12/29 00:06:08;;;;;;;8.40;1.33;;;11.20;33.20;;;;;;5055995;28;20277;-63
2023/12/29 00:08:34;;;;;;;7.78;1.30;;;11.30;29.90;;;;;;5056711;28;20073;-66
2023/12/29 00:10:59;;;;;;;6.32;1.17;;;11.20;30.60;;;;;;5056729;28;20033;-64
2023/12/29 00:13:25;;;;;;;7.53;1.27;;;11.30;33.50;;;;;;5055855;28;20116;-61
2023/12/29 00:15:55;;;;;;;9.93;1.13;;;11.20;38.80;;;;;;5056057;28;20025;-64
2023/12/29 00:18:21;;;;;;;6.25;1.55;;;11.20;47.30;;;;;;5056656;28;20037;-62
2023/12/29 00:20:48;;;;;;;8.85;1.40;;;11.10;57.10;;;;;;5056663;28;20051;-61
2023/12/29 00:23:14;;;;;;;12.18;1.42;;;11.00;77.20;;;;;;5056564;28;20044;-62
2023/12/29 00:25:39;;;;;;;7.88;1.10;;;10.90;99.90;;;;;;5056611;28;20040;-64
2023/12/29 00:28:06;;;;;;;10.15;1.48;;;10.70;99.90;;;;;;5056565;28;20360;-66
2023/12/29 00:30:31;;;;;;;7.68;1.63;;;10.70;99.90;;;;;;5056453;28;20061;-62
2023/12/29 00:32:58;;;;;;;8.18;1.10;;;10.60;99.90;;;;;;5055642;28;20040;-62
2023/12/29 00:35:24;;;;;;;7.60;1.30;;;10.60;99.90;;;;;;5060152;28;20292;-60
2023/12/29 00:37:53;;;;;;;8.40;1.23;;;10.60;99.90;;;;;;5043366;28;20029;-61
2023/12/29 00:40:18;;;;;;;7.28;1.40;;;10.50;99.90;;;;;;5059797;28;20048;-59
2023/12/29 00:42:44;;;;;;;5.57;1.00;;;10.50;99.90;;;;;;5060438;28;20061;-62
2023/12/29 00:45:10;;;;;;;8.32;1.10;;;10.50;99.90;;;;;;5060409;28;20084;-60
2023/12/29 00:47:36;;;;;;;5.68;1.25;;;10.50;99.90;;;;;;5060369;28;20032;-62
2023/12/29 00:50:03;;;;;;;10.02;1.65;;;10.50;99.90;;;;;;5060418;28;20033;-63
2023/12/29 00:52:29;;;;;;;8.35;1.20;;;10.50;99.90;;;;;;5060436;28;20048;-64
2023/12/29 00:54:55;;;;;;;8.30;1.30;;;10.60;99.90;;;;;;5060277;28;20412;-62
2023/12/29 00:57:21;;;;;;;9.32;1.20;;;10.60;99.90;;;;;;5060131;28;20029;-69
2023/12/29 00:59:47;;;;;;;8.13;1.15;;;10.60;99.90;;;;;;5060085;28;20415;-67
2023/12/29 01:02:13;;;;;;;9.73;1.45;;;10.70;99.90;;;;;;5076008;28;20033;-67
2023/12/29 01:04:39;;;;;;;11.38;1.33;;;10.70;99.90;;;;;;5059951;28;20461;-64
2023/12/29 01:07:05;;;;;;;11.93;1.05;;;10.70;99.90;;;;;;5060013;28;20029;-62
2023/12/29 01:09:31;;;;;;;9.30;1.33;;;10.70;99.90;;;;;;5060028;28;20025;-63
2023/12/29 01:11:57;;;;;;;8.55;1.40;;;10.80;99.90;;;;;;5059168;28;20032;-61
2023/12/29 01:14:23;;;;;;;9.10;1.30;;;10.80;99.90;;;;;;5075698;28;20120;-66
2023/12/29 01:16:49;;;;;;;7.35;1.10;;;10.80;99.90;;;;;;5026010;28;20029;-61
2023/12/29 01:19:14;;;;;;;8.88;1.60;;;10.80;99.00;;;;;;5059643;28;20049;-65
2023/12/29 01:21:41;;;;;;;10.82;1.42;;;10.80;98.00;;;;;;5059679;28;20037;-63
2023/12/29 01:24:07;;;;;;;6.30;1.10;;;10.80;96.30;;;;;;5059642;28;20028;-62
2023/12/29 01:26:39;;;;;;;6.28;1.23;;;10.80;93.90;;;;;;5059628;28;20040;-62
2023/12/29 01:29:06;;;;;;;5.63;1.23;;;10.80;94.60;;;;;;5059410;28;20037;-63
2023/12/29 01:31:32;;;;;;;6.65;1.15;;;10.90;86.90;;;;;;5059825;28;20432;-65
2023/12/29 01:33:58;;;;;;;6.97;1.67;;;10.90;84.40;;;;;;5059350;28;20032;-64
2023/12/29 01:36:24;;;;;;;9.63;1.52;;;10.90;89.20;;;;;;5058776;28;20037;-65
2023/12/29 01:38:53;;;;;;;7.28;0.98;;;10.90;88.30;;;;;;5059313;28;20021;-69
2023/12/29 01:41:22;;;;;;;10.90;1.52;;;10.90;91.50;;;;;;5059272;28;20057;-61
2023/12/29 01:44:00;;;;;;;6.10;1.20;;;10.90;92.10;;;;;;5059149;28;20118;-65
2023/12/29 01:46:31;;;;;;;6.07;1.13;;;10.80;92.60;;;;;;5074856;28;20036;-60
2023/12/29 01:48:58;;;;;;;8.55;1.70;;;10.80;95.90;;;;;;5075141;28;20098;-60
2023/12/29 01:51:25;;;;;;;5.47;1.30;;;10.90;97.20;;;;;;5059243;28;20130;-62
2023/12/29 01:53:53;;;;;;;9.25;1.65;;;10.80;94.60;;;;;;5059118;28;20100;-63
2023/12/29 01:56:20;;;;;;;7.88;1.25;;;10.90;94.90;;;;;;5059118;28;20037;-61
2023/12/29 01:58:50;;;;;;;6.95;1.38;;;10.90;91.60;;;;;;5074902;28;20028;-62
2023/12/29 02:01:18;;;;;;;9.63;1.10;;;11.00;88.00;;;;;;5074985;28;20033;-64
2023/12/29 02:03:45;;;;;;;7.20;1.30;;;10.90;91.50;;;;;;5074768;28;20324;-62
2023/12/29 02:06:12;;;;;;;6.93;1.27;;;10.90;93.80;;;;;;5058051;28;20033;-64
2023/12/29 02:08:38;;;;;;;6.03;1.20;;;11.00;90.90;;;;;;5058862;28;20032;-64
2023/12/29 02:11:04;;;;;;;6.97;1.00;;;11.00;86.20;;;;;;5058778;28;20103;-64
2023/12/29 02:13:31;;;;;;;7.65;1.08;;;11.00;80.10;;;;;;5058904;28;20028;-64
2023/12/29 02:16:05;;;;;;;11.18;1.63;;;11.00;76.40;;;;;;5058734;28;20263;-66
2023/12/29 02:18:34;;;;;;;8.25;1.20;;;11.10;72.70;;;;;;5058695;28;20025;-65
2023/12/29 02:21:02;;;;;;;13.98;1.80;;;11.20;66.80;;;;;;5058577;28;20451;-67
2023/12/29 02:23:29;;;;;;;6.72;1.08;;;11.30;57.30;;;;;;5058762;28;20044;-64
2023/12/29 02:26:09;;;;;;;7.25;1.33;;;11.20;61.50;;;;;;5057602;28;20125;-65
2023/12/29 02:28:44;;;;;;;10.90;1.50;;;11.20;67.70;;;;;;5058634;28;20067;-70
2023/12/29 02:31:20;;;;;;;11.45;1.90;;;11.20;72.90;;;;;;5058410;28;20037;-60
2023/12/29 02:33:48;;;;;;;7.78;1.30;;;11.10;69.40;;;;;;5058479;28;20108;-62
2023/12/29 02:36:16;;;;;;;8.02;1.27;;;11.10;75.60;;;;;;5058175;28;20054;-61
2023/12/29 02:38:42;;;;;;;9.23;1.58;;;11.10;70.30;;;;;;5058360;28;20091;-62
2023/12/29 02:41:09;;;;;;;7.05;1.15;;;11.10;64.10;;;;;;5058492;28;20116;-66
2023/12/29 02:43:35;;;;;;;12.27;1.83;;;11.20;65.90;;;;;;5058192;28;20309;-63
2023/12/29 02:46:01;;;;;;;4.05;0.90;;;11.20;61.30;;;;;;5058180;28;20025;-63
2023/12/29 02:48:27;;;;;;;7.55;1.70;;;11.20;68.70;;;;;;5058021;28;20029;-61
2023/12/29 02:50:52;;;;;;;7.47;1.13;;;11.00;76.50;;;;;;5058077;28;20037;-60
2023/12/29 02:53:18;;;;;;;8.90;1.38;;;10.90;82.50;;;;;;5057883;28;20393;-62
2023/12/29 02:55:44;;;;;;;11.70;1.42;;;10.90;89.00;;;;;;5073636;28;20036;-61
2023/12/29 02:58:10;;;;;;;3.47;1.23;;;10.90;93.80;;;;;;5056653;28;20056;-63
2023/12/29 03:00:35;;;;;;;5.63;1.25;;;10.80;95.00;;;;;;5057904;28;20021;-68
2023/12/29 03:03:01;;;;;;;5.63;1.10;;;10.80;93.90;;;;;;5056946;28;20132;-61
2023/12/29 03:05:27;;;;;;;4.20;1.80;;;10.80;95.90;;;;;;5073504;28;20052;-64
2023/12/29 03:07:53;;;;;;;10.23;1.40;;;10.80;95.30;;;;;;5057777;28;20039;-62
2023/12/29 03:10:19;;;;;;;6.80;1.02;;;10.70;98.10;;;;;;5057581;28;20409;-63
2023/12/29 03:12:44;;;;;;;7.55;1.30;;;10.80;95.90;;;;;;5057635;28;20037;-65
2023/12/29 03:15:10;;;;;;;6.15;1.13;;;10.80;93.50;;;;;;5056769;28;20021;-62
2023/12/29 03:17:36;;;;;;;5.82;1.15;;;10.80;93.00;;;;;;5057017;28;20395;-64
2023/12/29 03:20:04;;;;;;;7.95;1.13;;;10.80;91.00;;;;;;5057594;28;20025;-62
2023/12/29 03:22:30;;;;;;;9.27;1.50;;;10.70;92.90;;;;;;5057568;28;20297;-62
2023/12/29 03:24:56;;;;;;;4.70;1.20;;;10.70;96.20;;;;;;5057365;28;20044;-65
2023/12/29 03:27:22;;;;;;;9.10;1.75;;;10.70;95.50;;;;;;5057254;28;20036;-62
2023/12/29 03:29:48;;;;;;;8.45;0.90;;;10.70;92.30;;;;;;5057171;28;20436;-63
2023/12/29 03:32:15;;;;;;;10.50;1.33;;;10.70;91.00;;;;;;5057265;28;20121;-66
2023/12/29 03:34:41;;;;;;;8.13;1.20;;;10.70;84.60;;;;;;5072956;28;20428;-64
2023/12/29 03:37:07;;;;;;;7.13;1.00;;;10.70;88.20;;;;;;5057166;28;20059;-63
2023/12/29 03:39:35;;;;;;;9.65;1.33;;;10.80;88.40;;;;;;5039905;28;20078;-62
2023/12/29 03:42:01;;;;;;;7.85;1.40;;;10.90;80.20;;;;;;5056203;28;20297;-63
2023/12/29 03:44:27;;;;;;;8.38;1.17;;;10.90;80.80;;;;;;5057015;28;20071;-61
2023/12/29 03:46:53;;;;;;;7.43;1.02;;;10.80;89.00;;;;;;5056962;28;20033;-61
2023/12/29 03:49:21;;;;;;;7.45;1.40;;;10.80;91.90;;;;;;5056808;28;20068;-61
2023/12/29 03:51:47;;;;;;;7.22;1.50;;;10.80;92.30;;;;;;5072897;28;20052;-63
2023/12/29 03:54:15;;;;;;;10.57;1.60;;;10.80;90.40;;;;;;5057211;28;20029;-62
2023/12/29 03:56:40;;;;;;;10.50;1.63;;;10.70;93.00;;;;;;5056931;28;20036;-62
2023/12/29 03:59:06;;;;;;;9.43;1.27;;;10.80;93.40;;;;;;5056085;28;20033;-62
2023/12/29 04:01:33;;;;;;;8.23;1.33;;;10.80;91.40;;;;;;5056824;28;20408;-64
2023/12/29 04:03:59;;;;;;;6.20;1.20;;;10.80;91.70;;;;;;5056877;28;20112;-63
2023/12/29 04:06:25;;;;;;;8.10;1.58;;;10.70;92.90;;;;;;5056809;28;20057;-61
2023/12/29 04:08:51;;;;;;;12.10;1.27;;;10.70;95.10;;;;;;5056635;28;20081;-63
2023/12/29 04:11:17;;;;;;;9.40;1.70;;;10.70;95.40;;;;;;5056754;28;20037;-63
2023/12/29 04:13:42;;;;;;;8.20;1.30;;;10.60;95.20;;;;;;5056536;28;20037;-67
2023/12/29 04:16:08;;;;;;;8.60;1.67;;;10.60;97.80;;;;;;5056502;28;20392;-62
2023/12/29 04:18:34;;;;;;;8.35;1.20;;;10.60;98.80;;;;;;5072609;28;20385;-62
2023/12/29 04:21:00;;;;;;;7.30;1.58;;;10.60;99.10;;;;;;5055858;28;20029;-64
2023/12/29 04:23:26;;;;;;;12.18;1.30;;;10.60;99.90;;;;;;5056508;28;20108;-64
2023/12/29 04:25:52;;;;;;;10.25;1.67;;;10.60;99.90;;;;;;5056050;28;20033;-63
2023/12/29 04:28:18;;;;;;;5.80;1.23;;;10.50;99.90;;;;;;5072475;28;20068;-62
2023/12/29 04:30:43;;;;;;;11.52;1.63;;;10.50;99.90;;;;;;5056369;28;20045;-64
2023/12/29 04:33:09;;;;;;;11.27;1.65;;;10.50;99.90;;;;;;5056430;28;20048;-62
2023/12/29 04:35:35;;;;;;;8.85;1.40;;;10.50;99.90;;;;;;5055810;28;20037;-61
2023/12/29 04:38:01;;;;;;;10.18;1.55;;;10.50;99.90;;;;;;5056425;28;20296;-61
2023/12/29 04:40:27;;;;;;;9.35;1.70;;;10.50;99.90;;;;;;5056445;28;20033;-61
2023/12/29 04:42:53;;;;;;;10.52;1.30;;;10.50;99.90;;;;;;5056298;28;20041;-60
2023/12/29 04:45:19;;;;;;;11.05;1.65;;;10.50;99.90;;;;;;5055555;28;20068;-60
2023/12/29 04:47:44;;;;;;;8.45;1.45;;;10.50;99.90;;;;;;5056529;28;20416;-60
2023/12/29 04:50:10;;;;;;;8.80;1.27;;;10.50;99.90;;;;;;5056214;28;20040;-61
2023/12/29 04:52:36;;;;;;;6.18;1.02;;;10.40;99.90;;;;;;5056252;28;20033;-61
2023/12/29 04:55:02;;;;;;;8.80;1.40;;;10.40;99.90;;;;;;5056279;28;20029;-63
2023/12/29 04:57:28;;;;;;;6.88;1.02;;;10.40;99.90;;;;;;5056192;28;20472;-64
2023/12/29 04:59:53;;;;;;;12.20;1.55;;;10.40;99.90;;;;;;5056150;28;20075;-62
2023/12/29 05:02:19;;;;;;;10.82;1.50;;;10.40;99.90;;;;;;5038776;28;20045;-62
2023/12/29 05:04:46;;;;;;;9.38;1.35;;;10.50;99.90;;;;;;5056072;28;20041;-62
2023/12/29 05:07:12;;;;;;;5.72;1.00;;;10.50;99.90;;;;;;5056034;28;20055;-66
2023/12/29 05:09:38;;;;;;;6.70;1.27;;;10.50;99.90;;;;;;5056139;28;20040;-64
2023/12/29 05:12:04;;;;;;;4.68;1.13;;;10.50;99.90;;;;;;5055401;28;20025;-67
2023/12/29 05:14:29;;;;;;;6.55;1.08;;;10.50;99.90;;;;;;5071917;28;20124;-62
2023/12/29 05:16:55;;;;;;;7.38;1.20;;;10.50;99.90;;;;;;5055294;28;20100;-63
2023/12/29 05:19:21;;;;;;;7.63;1.38;;;10.40;99.90;;;;;;5056294;28;20057;-60
2023/12/29 05:21:50;;;;;;;11.30;1.23;;;10.40;99.90;;;;;;5059627;28;20025;-64
2023/12/29 05:24:16;;;;;;;6.10;1.35;;;10.40;99.90;;;;;;5059569;28;20112;-63
2023/12/29 05:26:42;;;;;;;8.63;1.17;;;10.40;99.90;;;;;;5059723;28;20131;-63
2023/12/29 05:29:08;;;;;;;8.90;1.30;;;10.40;99.90;;;;;;5075220;28;20055;-62
2023/12/29 05:31:33;;;;;;;7.25;1.00;;;10.40;99.90;;;;;;5059639;28;20029;-63
2023/12/29 05:33:59;;;;;;;9.40;1.50;;;10.40;99.90;;;;;;5059294;28;20039;-61
2023/12/29 05:36:25;;;;;;;9.75;1.40;;;10.40;99.90;;;;;;5059394;28;20465;-63
2023/12/29 05:38:51;;;;;;;4.15;1.05;;;10.40;99.90;;;;;;5075317;28;20037;-64
2023/12/29 05:41:18;;;;;;;8.15;1.00;;;10.50;99.90;;;;;;5059320;28;20119;-63
2023/12/29 05:43:44;;;;;;;4.13;1.00;;;10.50;99.90;;;;;;5059227;28;20036;-63
2023/12/29 05:46:13;;;;;;;9.93;1.73;;;10.50;99.90;;;;;;5059290;28;20351;-65
2023/12/29 05:48:40;;;;;;;9.43;1.20;;;10.30;99.90;;;;;;5059204;28;20392;-67
2023/12/29 05:51:09;;;;;;;10.73;2.30;;;10.10;99.90;;;;;;5059253;28;20039;-62
2023/12/29 05:53:35;;;;;;;8.27;1.00;;;10.00;99.90;;;;;;5058990;28;20104;-62
2023/12/29 05:56:01;;;;;;;11.30;1.40;;;10.00;99.90;;;;;;5059078;28;20135;-62
2023/12/29 05:58:27;;;;;;;9.90;1.52;;;10.00;99.90;;;;;;5058927;28;20037;-62
2023/12/29 06:00:54;;;;;;;10.05;1.40;;;9.90;99.90;;;;;;5058895;28;20098;-62
2023/12/29 06:03:20;;;;;;;9.38;1.20;;;10.00;99.90;;;;;;5058235;28;20037;-62
2023/12/29 06:05:46;;;;;;;9.57;1.75;;;10.00;99.90;;;;;;5074953;28;20079;-62
2023/12/29 06:08:11;;;;;;;9.00;1.48;;;10.00;99.90;;;;;;5058870;28;20116;-62
2023/12/29 06:10:37;;;;;;;5.30;1.13;;;10.00;99.90;;;;;;5058689;28;20029;-61
2023/12/29 06:13:03;;;;;;;10.75;1.60;;;10.00;99.90;;;;;;5074623;28;20304;-61
2023/12/29 06:15:29;;;;;;;7.13;1.50;;;10.10;99.90;;;;;;5057888;28;20392;-62
2023/12/29 06:17:55;;;;;;;8.80;1.45;;;10.10;99.90;;;;;;5058747;28;20032;-64
2023/12/29 06:20:21;;;;;;;11.77;2.20;;;10.10;99.90;;;;;;5058514;28;20392;-62
2023/12/29 06:22:46;;;;;;;5.18;1.17;;;10.00;99.90;;;;;;5058585;28;20460;-63
2023/12/29 06:25:12;;;;;;;7.75;1.85;;;10.10;99.90;;;;;;5058418;28;20025;-66
2023/12/29 06:27:40;;;;;;;7.45;1.50;;;10.10;99.90;;;;;;5057724;28;20415;-62
2023/12/29 06:30:12;;;;;;;10.40;1.60;;;10.10;99.90;;;;;;5058155;28;20055;-63
2023/12/29 06:32:39;;;;;;;10.98;1.90;;;10.20;99.90;;;;;;5057367;28;20350;-63
2023/12/29 06:35:06;;;;;;;8.70;1.23;;;10.10;99.90;;;;;;5074201;28;20029;-62
2023/12/29 06:37:32;;;;;;;9.63;1.30;;;10.10;99.90;;;;;;5058179;28;20041;-65
2023/12/29 06:39:58;;;;;;;6.03;1.35;;;10.10;99.90;;;;;;5074259;28;20032;-62
2023/12/29 06:42:24;;;;;;;5.43;1.35;;;10.10;99.90;;;;;;5058221;28;20385;-64
2023/12/29 06:44:50;;;;;;;8.52;1.33;;;10.10;99.90;;;;;;5073955;28;20055;-64
2023/12/29 06:47:16;;;;;;;6.85;1.30;;;10.10;99.90;;;;;;5073992;28;20029;-65
2023/12/29 06:49:42;;;;;;;9.98;1.55;;;10.10;99.90;;;;;;5058087;28;20140;-62
2023/12/29 06:52:08;;;;;;;7.07;1.10;;;10.10;99.90;;;;;;5057214;28;20043;-62
2023/12/29 06:54:34;;;;;;;7.70;1.00;;;10.20;99.90;;;;;;5058130;28;20470;-63
2023/12/29 06:57:00;;;;;;;5.65;1.23;;;10.20;99.90;;;;;;5057746;28;20135;-64
2023/12/29 06:59:26;;;;;;;6.50;1.13;;;10.20;99.90;;;;;;5057766;28;20064;-63
2023/12/29 07:01:52;;;;;;;5.10;1.02;;;10.10;99.90;;;;;;5057655;28;20032;-63
2023/12/29 07:04:17;;;;;;;8.07;0.95;;;10.00;99.90;;;;;;5073633;28;20033;-61
2023/12/29 07:06:43;;;;;;;5.70;1.05;;;10.00;99.90;;;;;;5057003;28;20048;-67
2023/12/29 07:09:09;;;;;;;6.35;0.88;;;10.00;99.90;;;;;;5057565;28;20032;-62
2023/12/29 07:11:36;;;;;;;4.63;0.90;;;10.00;99.90;;;;;;5057609;28;20048;-63
2023/12/29 07:14:02;;;;;;;7.53;0.98;;;10.00;99.90;;;;;;5057479;28;20102;-61
2023/12/29 07:16:28;;;;;;;9.82;1.20;;;10.00;99.90;;;;;;5057438;28;20127;-63
2023/12/29 07:18:54;;;;;;;6.82;1.40;;;10.00;99.90;;;;;;5057451;28;20052;-65
2023/12/29 07:21:19;;;;;;;5.18;0.80;;;10.00;99.90;;;;;;5057481;28;20451;-65
2023/12/29 07:23:45;;;;;;;6.00;1.02;;;10.00;99.90;;;;;;5057446;28;20036;-62
2023/12/29 07:26:11;;;;;;;8.38;1.05;;;10.00;99.90;;;;;;5057441;28;20036;-60
2023/12/29 07:28:37;;;;;;;5.22;0.80;;;10.10;99.90;;;;;;5057405;28;20120;-64
2023/12/29 07:31:03;;;;;;;3.38;0.75;;;10.10;99.90;;;;;;5057083;28;20083;-66
2023/12/29 07:33:30;;;;;;;5.43;0.90;;;10.10;99.90;;;;;;5057164;28;20057;-66
2023/12/29 07:35:56;;;;;;;4.78;0.70;;;10.00;99.90;;;;;;5057112;28;20021;-64
2023/12/29 07:38:21;;;;;;;3.45;0.93;;;9.90;99.90;;;;;;5057116;28;20090;-62
2023/12/29 07:40:47;;;;;;;4.47;0.90;;;9.90;99.90;;;;;;5057085;28;20036;-68
2023/12/29 07:43:14;;;;;;;2.65;0.80;;;9.90;99.90;;;;;;5072661;28;20029;-65
2023/12/29 07:45:40;;;;;;;6.55;0.90;;;9.90;99.90;;;;;;5056926;28;20320;-63
2023/12/29 07:48:06;;;;;;;5.40;0.68;;;9.90;99.90;;;;;;5056213;28;20033;-64
2023/12/29 07:50:32;;;;;;;4.07;0.80;;;9.90;99.90;;;;;;5056800;28;20439;-66
2023/12/29 07:53:02;;;;;;;4.75;0.68;;;10.00;99.90;;;;;;5055963;28;20067;-63
2023/12/29 07:55:29;;;;;;;2.90;0.63;;;10.00;99.90;;;;;;5057095;28;20099;-64
2023/12/29 07:57:54;;;;;;;4.47;1.00;;;9.90;99.90;;;;;;5057010;28;20312;-62
2023/12/29 08:00:20;;;;;;;2.65;0.85;;;10.00;99.90;;;;;;5056804;28;20021;-64
2023/12/29 08:02:46;;;;;;;4.85;0.70;;;10.00;99.90;;;;;;5056856;28;20097;-65
2023/12/29 08:05:12;;;;;;;2.67;0.70;;;10.10;99.90;;;;;;5072479;28;20049;-63
2023/12/29 08:07:38;;;;;;;2.08;0.60;;;10.10;99.90;;;;;;5056751;28;20305;-63
2023/12/29 08:10:05;;;;;;;4.40;0.93;;;10.00;99.90;;;;;;5056701;28;20033;-62
2023/12/29 08:12:33;;;;;;;2.67;0.63;;;9.90;99.90;;;;;;5056635;28;20036;-65
2023/12/29 08:14:59;;;;;;;2.17;0.90;;;9.90;99.90;;;;;;5056355;28;20312;-63
2023/12/29 08:17:25;;;;;;;2.22;0.38;;;9.90;99.90;;;;;;5056478;28;20347;-60
2023/12/29 08:19:51;;;;;;;3.03;0.80;;;9.90;99.90;;;;;;5056768;28;20407;-62
2023/12/29 08:22:19;;;;;;;1.45;0.57;;;9.90;99.90;;;;;;5072558;28;20064;-59
2023/12/29 08:24:45;;;;;;;3.22;0.50;;;9.80;99.90;;;;;;5072642;28;20029;-60
2023/12/29 08:27:12;;;;;;;3.15;0.60;;;9.70;99.90;;;;;;5056378;28;20119;-59
2023/12/29 08:29:39;;;;;;;1.83;0.60;;;9.70;99.90;;;;;;5056353;28;20400;-58
2023/12/29 08:32:05;;;;;;;2.95;0.80;;;9.60;99.90;;;;;;5056404;28;20274;-60
2023/12/29 08:34:31;;;;;;;3.40;0.90;;;9.60;99.90;;;;;;5056406;28;20072;-60
2023/12/29 08:36:57;;;;;;;4.50;0.80;;;9.60;99.90;;;;;;5056325;28;20029;-62
2023/12/29 08:39:24;;;;;;;4.70;0.88;;;9.60;99.90;;;;;;5056363;28;20029;-60
2023/12/29 08:41:50;;;;;;;3.50;0.88;;;9.60;99.90;;;;;;5056365;28;20037;-60
2023/12/29 08:44:16;;;;;;;1.35;0.65;;;9.60;99.90;;;;;;5056377;28;20029;-61
2023/12/29 08:46:42;;;;;;;3.47;1.00;;;9.70;99.90;;;;;;5056418;28;20033;-60
2023/12/29 08:49:08;;;;;;;1.45;0.93;;;9.70;99.90;;;;;;5039116;28;20033;-60
2023/12/29 08:51:34;;;;;;;3.13;1.10;;;9.70;99.90;;;;;;5056394;28;20033;-60
2023/12/29 08:54:00;;;;;;;3.10;1.08;;;9.70;99.90;;;;;;5056298;28;20025;-60
2023/12/29 08:56:25;;;;;;;3.50;1.20;;;9.70;99.90;;;;;;5059918;28;20035;-59
2023/12/29 08:58:52;;;;;;;3.97;0.98;;;9.70;99.90;;;;;;5060212;28;20277;-60
2023/12/29 09:01:19;;;;;;;3.72;0.73;;;9.70;99.90;;;;;;5060249;28;20367;-58
2023/12/29 09:03:45;;;;;;;1.80;0.60;;;9.70;99.90;;;;;;5060079;28;20033;-59
2023/12/29 09:06:10;;;;;;;0.95;0.45;;;9.70;99.90;;;;;;5060086;28;20288;-59
2023/12/29 09:08:36;;;;;;;1.65;0.60;;;9.80;99.90;;;;;;5060045;28;20124;-61
2023/12/29 09:11:02;;;;;;;0.77;0.40;;;9.80;99.90;;;;;;5060033;28;20075;-60
2023/12/29 09:13:28;;;;;;;2.90;0.60;;;9.90;99.90;;;;;;5059726;28;20029;-60
2023/12/29 09:15:55;;;;;;;1.83;0.40;;;9.90;99.90;;;;;;5059911;28;20028;-61
2023/12/29 09:18:21;;;;;;;1.60;0.32;;;10.00;99.90;;;;;;5059503;28;20091;-62
2023/12/29 09:20:47;;;;;;;1.13;0.40;;;10.00;99.90;;;;;;5059169;28;20031;-62
2023/12/29 09:23:13;;;;;;;1.27;0.30;;;10.00;99.90;;;;;;5059687;28;20029;-63
2023/12/29 09:25:40;;;;;;;1.35;0.40;;;10.10;99.90;;;;;;5059942;28;20068;-62
2023/12/29 09:28:06;;;;;;;2.75;0.60;;;10.10;99.90;;;;;;5059677;28;20033;-62
2023/12/29 09:30:32;;;;;;;2.40;0.60;;;10.10;99.90;;;;;;5059502;28;20064;-65
2023/12/29 09:32:58;;;;;;;2.58;0.80;;;10.10;99.90;;;;;;5059561;28;20411;-65
2023/12/29 09:35:24;;;;;;;4.80;0.80;;;10.20;99.90;;;;;;5075490;28;20131;-61
2023/12/29 09:37:50;;;;;;;2.25;0.80;;;10.30;99.90;;;;;;5059590;28;20361;-60
2023/12/29 09:40:16;;;;;;;5.90;1.25;;;10.30;99.90;;;;;;5058760;28;20043;-60
2023/12/29 09:42:45;;;;;;;2.30;0.85;;;10.30;99.90;;;;;;5059584;28;20033;-59
2023/12/29 09:45:12;;;;;;;4.80;1.30;;;10.40;99.90;;;;;;5041938;28;20029;-59
2023/12/29 09:47:42;;;;;;;6.60;1.50;;;10.40;99.90;;;;;;5059384;28;20306;-59
2023/12/29 09:50:11;;;;;;;3.88;1.20;;;10.50;99.90;;;;;;5058679;28;20400;-60
2023/12/29 09:52:40;;;;;;;4.10;1.10;;;10.50;99.90;;;;;;5058993;28;20036;-60
2023/12/29 09:55:11;;;;;;;3.60;1.00;;;10.50;99.90;;;;;;5058980;28;20033;-61
2023/12/29 09:57:38;;;;;;;3.40;0.90;;;10.60;99.90;;;;;;5059032;28;20028;-61
2023/12/29 10:00:05;;;;;;;4.68;0.95;;;10.70;99.90;;;;;;5058926;28;20021;-59
2023/12/29 10:02:37;;;;;;;4.13;0.90;;;10.80;99.90;;;;;;5059008;28;20065;-60
2023/12/29 10:05:04;;;;;;;3.53;0.90;;;10.80;99.90;;;;;;5058953;28;20452;-61
2023/12/29 10:07:35;;;;;;;5.90;0.75;;;10.80;99.90;;;;;;5074697;28;20086;-61
2023/12/29 10:10:02;;;;;;;1.83;0.77;;;10.80;99.90;;;;;;5058947;28;20101;-63
2023/12/29 10:12:29;;;;;;;4.18;0.90;;;11.00;99.90;;;;;;5058945;28;20320;-62
2023/12/29 10:15:02;;;;;;;24.13;1.60;;;11.00;99.90;;;;;;5058602;28;20029;-66
2023/12/29 10:17:51;;;;;;;4.30;0.63;;;11.20;99.90;;;;;;5057936;28;20452;-61
2023/12/29 10:20:45;;;;;;;2.08;0.40;;;11.30;99.90;;;;;;5058505;28;20061;-64
2023/12/29 10:23:38;;;;;;;3.85;0.40;;;11.40;99.90;;;;;;5057786;28;20431;-60
2023/12/29 10:26:05;;;;;;;1.80;0.50;;;11.30;99.90;;;;;;5058550;28;20037;-63
2023/12/29 10:28:32;;;;;;;1.63;0.32;;;11.20;99.90;;;;;;5058389;28;20033;-60
2023/12/29 10:30:58;;;;;;;1.55;0.65;;;11.10;99.90;;;;;;5058219;28;20052;-60
2023/12/29 10:33:24;;;;;;;2.17;0.30;;;11.20;99.90;;;;;;5058042;28;20047;-61
2023/12/29 10:36:01;;;;;;;0.77;0.30;;;11.20;99.90;;;;;;5057575;28;20032;-60
2023/12/29 10:38:27;;;;;;;1.42;0.30;;;11.10;99.90;;;;;;5057449;28;20040;-60
2023/12/29 10:40:53;;;;;;;2.13;0.38;;;11.10;99.90;;;;;;5058051;28;20389;-60
2023/12/29 10:43:23;;;;;;;1.33;0.22;;;11.10;99.90;;;;;;5058051;28;20136;-58
2023/12/29 10:45:49;;;;;;;2.03;0.30;;;11.00;99.90;;;;;;5058030;28;20037;-60
2023/12/29 10:48:24;;;;;;;1.40;0.40;;;10.90;99.90;;;;;;5057918;28;20099;-62
2023/12/29 10:50:49;;;;;;;0.93;0.30;;;10.80;99.90;;;;;;5057961;28;20033;-61
2023/12/29 10:53:18;;;;;;;3.97;0.43;;;10.80;99.90;;;;;;5057741;28;20063;-61
2023/12/29 10:55:44;;;;;;;2.00;0.50;;;10.80;99.90;;;;;;5057799;28;20103;-62
2023/12/29 10:58:10;;;;;;;1.30;0.60;;;10.90;99.90;;;;;;5057800;28;20064;-63
2023/12/29 11:00:36;;;;;;;1.83;0.80;;;10.90;99.90;;;;;;5057743;28;20025;-63
2023/12/29 11:03:03;;;;;;;1.50;0.60;;;10.90;99.90;;;;;;5057608;28;20082;-65
2023/12/29 11:05:29;;;;;;;1.20;0.68;;;10.80;99.90;;;;;;5056983;28;20045;-64
2023/12/29 11:07:55;;;;;;;3.22;0.80;;;10.90;99.90;;;;;;5057658;28;20293;-63
2023/12/29 11:10:21;;;;;;;4.93;1.00;;;10.90;99.90;;;;;;5057543;28;20088;-62
2023/12/29 11:12:48;;;;;;;6.68;1.20;;;11.00;99.90;;;;;;5057478;28;20090;-65
2023/12/29 11:15:15;;;;;;;3.90;1.20;;;11.10;99.90;;;;;;5057526;28;20025;-65
2023/12/29 11:17:49;;;;;;;5.85;1.38;;;11.10;99.90;;;;;;5056637;28;20041;-63
2023/12/29 11:20:16;;;;;;;3.40;1.20;;;11.10;99.90;;;;;;5057355;28;20029;-63
2023/12/29 11:22:45;;;;;;;3.97;1.50;;;11.10;99.90;;;;;;5057425;28;20013;-63
2023/12/29 11:25:12;;;;;;;5.68;1.25;;;11.10;99.90;;;;;;5057379;28;20044;-62
2023/12/29 11:27:38;;;;;;;4.97;1.67;;;11.10;99.90;;;;;;5057279;28;20037;-64
2023/12/29 11:30:04;;;;;;;5.78;1.27;;;11.00;99.90;;;;;;5057117;28;20170;-63
2023/12/29 11:33:08;;;;;;;7.35;1.70;;;11.00;99.90;;;;;;5057242;28;20080;-64
2023/12/29 11:36:04;;;;;;;8.30;1.98;;;11.00;99.90;;;;;;5035654;28;20034;-64
2023/12/29 11:38:37;;;;;;;5.05;1.63;;;11.10;99.90;;;;;;5056733;28;20037;-63
2023/12/29 11:41:13;;;;;;;5.40;1.70;;;11.20;99.90;;;;;;5072905;28;20053;-64
2023/12/29 11:43:38;;;;;;;6.63;1.60;;;11.20;99.90;;;;;;5056997;28;20044;-64
2023/12/29 11:46:04;;;;;;;7.03;1.90;;;11.20;99.90;;;;;;5057042;28;20029;-63
2023/12/29 11:49:02;;;;;;;6.70;1.52;;;11.30;99.90;;;;;;5056318;28;20066;-64
2023/12/29 11:51:38;;;;;;;5.60;1.70;;;11.30;99.90;;;;;;5056994;28;20033;-62
2023/12/29 11:54:05;;;;;;;8.50;1.95;;;11.40;99.90;;;;;;5056860;28;20037;-63
2023/12/29 11:56:33;;;;;;;8.23;1.80;;;11.30;99.90;;;;;;5056737;28;20035;-61
2023/12/29 11:59:22;;;;;;;7.47;1.80;;;11.30;99.90;;;;;;5055873;28;20025;-65
2023/12/29 12:02:00;;;;;;;6.40;1.67;;;11.40;99.90;;;;;;5056796;28;20324;-62
2023/12/29 12:04:43;;;;;;;8.95;2.03;;;11.40;99.90;;;;;;5056681;28;20037;-62
2023/12/29 12:07:15;;;;;;;8.38;1.90;;;11.40;99.90;;;;;;5056668;28;20059;-63
2023/12/29 12:09:41;;;;;;;5.15;1.50;;;11.50;99.90;;;;;;5072600;28;20029;-62
2023/12/29 12:12:07;;;;;;;4.78;1.70;;;11.30;99.90;;;;;;5056519;28;20051;-62
2023/12/29 12:14:50;;;;;;;7.10;1.70;;;11.40;99.90;;;;;;5056523;28;20071;-61
2023/12/29 12:17:30;;;;;;;4.10;1.50;;;11.50;99.90;;;;;;5055830;28;20423;-64
2023/12/29 12:19:58;;;;;;;2.78;1.55;;;11.50;99.90;;;;;;5056576;28;20295;-62
2023/12/29 12:22:25;;;;;;;5.80;1.90;;;11.30;99.90;;;;;;5056017;28;20393;-64
2023/12/29 12:25:00;;;;;;;5.25;1.48;;;11.20;99.90;;;;;;5056635;28;20050;-64
2023/12/29 12:27:27;;;;;;;5.25;1.60;;;11.20;99.90;;;;;;5056665;28;20033;-62
2023/12/29 12:29:59;;;;;;;6.72;1.88;;;11.20;99.90;;;;;;5057603;28;20404;-63
2023/12/29 12:32:29;;;;;;;3.73;2.23;;;11.20;99.90;;;;;;5060021;28;20316;-62
2023/12/29 12:34:56;;;;;;;4.43;1.20;;;11.40;99.90;;;;;;5059812;28;20066;-62
2023/12/29 12:37:29;;;;;;;2.00;0.90;;;11.50;99.90;;;;;;5059651;28;20393;-61
2023/12/29 12:39:56;;;;;;;3.65;0.82;;;11.40;99.90;;;;;;5060484;28;20028;-62
2023/12/29 12:42:22;;;;;;;4.47;1.00;;;11.40;99.90;;;;;;5060426;28;20036;-62
2023/12/29 12:44:56;;;;;;;3.08;0.90;;;11.40;99.90;;;;;;5060303;28;20116;-63
2023/12/29 12:47:52;;;;;;;2.30;0.90;;;11.60;99.90;;;;;;5060308;28;20357;-61
2023/12/29 12:50:18;;;;;;;3.53;0.80;;;11.50;99.90;;;;;;5059638;28;20041;-61